sensor_id;sensor_type;location;lat;lon;timestamp;pressure;altitude;pressure_sealevel;temperature;humidity
14343;BME280;7255;53.596;9.960;2023-01-05T00:00:18;100417.22;;;9.42;nan
14343;BME280;7255;53.596;9.960;2023-01-05T00:02:45;100402.41;;;9.40;nan
14343;BME280;7255;53.596;9.960;2023-01-05T00:05:11;100407.78;;;9.40;nan
14343;BME280;7255;53.596;9.960;2023-01-05T00:07:37;100411.50;;;9.39;nan
14343;BME280;7255;53.596;9.960;2023-01-05T00:10:06;100424.69;;;9.40;nan
14343;BME280;7255;53.596;9.960;2023-01-05T00:12:53;100425.03;;;9.44;nan
14343;BME280;7255;53.596;9.960;2023-01-05T00:15:37;100426.31;;;9.41;nan
14343;BME280;7255;53.596;9.960;2023-01-05T00:18:21;100432.03;;;9.45;nan
14343;BME280;7255;53.596;9.960;2023-01-05T00:21:09;100428.38;;;9.39;nan
14343;BME280;7255;53.596;9.960;2023-01-05T00:23:55;100420.59;;;9.38;nan
14343;BME280;7255;53.596;9.960;2023-01-05T00:26:23;100422.97;;;9.46;nan
14343;BME280;7255;53.596;9.960;2023-01-05T00:28:49;100441.88;;;9.51;nan
14343;BME280;7255;53.596;9.960;2023-01-05T00:31:15;100433.69;;;9.46;nan
14343;BME280;7255;53.596;9.960;2023-01-05T00:33:41;100422.97;;;9.46;nan
14343;BME280;7255;53.596;9.960;2023-01-05T00:36:08;100423.41;;;9.43;nan
14343;BME280;7255;53.596;9.960;2023-01-05T00:38:34;100424.22;;;9.43;nan
14343;BME280;7255;53.596;9.960;2023-01-05T00:41:01;100436.94;;;9.48;nan
14343;BME280;7255;53.596;9.960;2023-01-05T00:43:28;100434.00;;;9.56;nan
14343;BME280;7255;53.596;9.960;2023-01-05T00:45:55;100443.13;;;9.49;nan
14343;BME280;7255;53.596;9.960;2023-01-05T00:48:21;100434.97;;;9.43;nan
14343;BME280;7255;53.596;9.960;2023-01-05T00:50:48;100447.25;;;9.51;nan
14343;BME280;7255;53.596;9.960;2023-01-05T00:53:14;100459.97;;;9.56;nan
14343;BME280;7255;53.596;9.960;2023-01-05T00:55:41;100447.69;;;9.48;nan
14343;BME280;7255;53.596;9.960;2023-01-05T00:58:07;100446.94;;;9.41;nan
14343;BME280;7255;53.596;9.960;2023-01-05T01:00:35;100444.41;;;9.46;nan
14343;BME280;7255;53.596;9.960;2023-01-05T01:03:01;100451.78;;;9.51;nan
14343;BME280;7255;53.596;9.960;2023-01-05T01:05:27;100459.69;;;9.46;nan
14343;BME280;7255;53.596;9.960;2023-01-05T01:07:53;100462.16;;;9.47;nan
14343;BME280;7255;53.596;9.960;2023-01-05T01:10:20;100467.94;;;9.44;nan
14343;BME280;7255;53.596;9.960;2023-01-05T01:12:46;100466.66;;;9.47;nan
14343;BME280;7255;53.596;9.960;2023-01-05T01:15:12;100471.66;;;9.43;nan
14343;BME280;7255;53.596;9.960;2023-01-05T01:17:40;100472.88;;;9.47;nan
14343;BME280;7255;53.596;9.960;2023-01-05T01:20:07;100472.50;;;9.43;nan
14343;BME280;7255;53.596;9.960;2023-01-05T01:22:34;100480.81;;;9.35;nan
14343;BME280;7255;53.596;9.960;2023-01-05T01:25:00;100468.00;;;9.37;nan
14343;BME280;7255;53.596;9.960;2023-01-05T01:27:28;100477.03;;;9.43;nan
14343;BME280;7255;53.596;9.960;2023-01-05T01:29:55;100490.31;;;9.38;nan
14343;BME280;7255;53.596;9.960;2023-01-05T01:32:21;100479.56;;;9.38;nan
14343;BME280;7255;53.596;9.960;2023-01-05T01:34:49;100483.34;;;9.30;nan
14343;BME280;7255;53.596;9.960;2023-01-05T01:37:16;100484.19;;;9.31;nan
14343;BME280;7255;53.596;9.960;2023-01-05T01:39:42;100497.81;;;9.29;nan
14343;BME280;7255;53.596;9.960;2023-01-05T01:42:11;100492.38;;;9.36;nan
14343;BME280;7255;53.596;9.960;2023-01-05T01:44:56;100503.97;;;9.30;nan
14343;BME280;7255;53.596;9.960;2023-01-05T01:47:35;100490.78;;;9.28;nan
14343;BME280;7255;53.596;9.960;2023-01-05T01:50:09;100502.38;;;9.29;nan
14343;BME280;7255;53.596;9.960;2023-01-05T01:52:38;100500.28;;;9.31;nan
14343;BME280;7255;53.596;9.960;2023-01-05T01:55:06;100506.88;;;9.28;nan
14343;BME280;7255;53.596;9.960;2023-01-05T01:57:34;100523.34;;;9.32;nan
14343;BME280;7255;53.596;9.960;2023-01-05T02:00:03;100513.00;;;9.35;nan
14343;BME280;7255;53.596;9.960;2023-01-05T02:02:29;100514.28;;;9.33;nan
14343;BME280;7255;53.596;9.960;2023-01-05T02:04:59;100517.19;;;9.31;nan
14343;BME280;7255;53.596;9.960;2023-01-05T02:07:29;100515.53;;;9.30;nan
14343;BME280;7255;53.596;9.960;2023-01-05T02:09:57;100518.87;;;9.25;nan
14343;BME280;7255;53.596;9.960;2023-01-05T02:12:35;100519.69;;;9.26;nan
14343;BME280;7255;53.596;9.960;2023-01-05T02:15:13;100504.78;;;9.30;nan
14343;BME280;7255;53.596;9.960;2023-01-05T02:17:53;100518.06;;;9.25;nan
14343;BME280;7255;53.596;9.960;2023-01-05T02:20:31;100514.03;;;9.16;nan
14343;BME280;7255;53.596;9.960;2023-01-05T02:26:17;100532.53;;;9.17;nan
14343;BME280;7255;53.596;9.960;2023-01-05T02:29:10;100510.34;;;9.10;nan
14343;BME280;7255;53.596;9.960;2023-01-05T02:31:46;100515.78;;;9.03;nan
14343;BME280;7255;53.596;9.960;2023-01-05T02:34:20;100521.94;;;9.04;nan
14343;BME280;7255;53.596;9.960;2023-01-05T02:36:52;100519.88;;;9.06;nan
14343;BME280;7255;53.596;9.960;2023-01-05T02:39:25;100506.69;;;9.04;nan
14343;BME280;7255;53.596;9.960;2023-01-05T02:41:57;100518.72;;;8.95;nan
14343;BME280;7255;53.596;9.960;2023-01-05T02:44:27;100528.19;;;8.98;nan
14343;BME280;7255;53.596;9.960;2023-01-05T02:47:00;100526.16;;;8.93;nan
14343;BME280;7255;53.596;9.960;2023-01-05T02:49:27;100524.47;;;8.99;nan
14343;BME280;7255;53.596;9.960;2023-01-05T02:51:57;100534.41;;;8.92;nan
14343;BME280;7255;53.596;9.960;2023-01-05T02:54:29;100534.41;;;8.92;nan
14343;BME280;7255;53.596;9.960;2023-01-05T02:56:59;100523.31;;;8.88;nan
14343;BME280;7255;53.596;9.960;2023-01-05T02:59:29;100516.38;;;8.80;nan
14343;BME280;7255;53.596;9.960;2023-01-05T03:02:03;100536.19;;;8.79;nan
14343;BME280;7255;53.596;9.960;2023-01-05T03:04:36;100530.03;;;8.72;nan
14343;BME280;7255;53.596;9.960;2023-01-05T03:07:06;100532.13;;;8.70;nan
14343;BME280;7255;53.596;9.960;2023-01-05T03:09:36;100537.47;;;8.70;nan
14343;BME280;7255;53.596;9.960;2023-01-05T03:12:10;100522.53;;;8.81;nan
14343;BME280;7255;53.596;9.960;2023-01-05T03:14:58;100534.53;;;8.78;nan
14343;BME280;7255;53.596;9.960;2023-01-05T03:17:28;100544.88;;;8.68;nan
14343;BME280;7255;53.596;9.960;2023-01-05T03:19:57;100540.31;;;8.75;nan
14343;BME280;7255;53.596;9.960;2023-01-05T03:22:27;100530.03;;;8.72;nan
14343;BME280;7255;53.596;9.960;2023-01-05T03:25:13;100532.13;;;8.70;nan
14343;BME280;7255;53.596;9.960;2023-01-05T03:27:59;100546.97;;;8.66;nan
14343;BME280;7255;53.596;9.960;2023-01-05T03:30:51;100528.00;;;8.67;nan
14343;BME280;7255;53.596;9.960;2023-01-05T03:33:44;100553.19;;;8.60;nan
14343;BME280;7255;53.596;9.960;2023-01-05T03:36:34;100560.19;;;8.61;nan
14343;BME280;7255;53.596;9.960;2023-01-05T03:39:06;100549.50;;;8.61;nan
14343;BME280;7255;53.596;9.960;2023-01-05T03:41:35;100547.88;;;8.53;nan
14343;BME280;7255;53.596;9.960;2023-01-05T03:44:01;100555.69;;;8.55;nan
14343;BME280;7255;53.596;9.960;2023-01-05T03:46:28;100561.03;;;8.55;nan
14343;BME280;7255;53.596;9.960;2023-01-05T03:48:55;100556.09;;;8.52;nan
14343;BME280;7255;53.596;9.960;2023-01-05T03:51:22;100560.72;;;8.44;nan
14343;BME280;7255;53.596;9.960;2023-01-05T03:53:48;100561.91;;;8.48;nan
14343;BME280;7255;53.596;9.960;2023-01-05T03:56:14;100580.47;;;8.43;nan
14343;BME280;7255;53.596;9.960;2023-01-05T03:58:41;100566.06;;;8.38;nan
14343;BME280;7255;53.596;9.960;2023-01-05T04:01:07;100574.31;;;8.43;nan
14343;BME280;7255;53.596;9.960;2023-01-05T04:03:33;100571.81;;;8.41;nan
14343;BME280;7255;53.596;9.960;2023-01-05T04:06:02;100580.06;;;8.46;nan
14343;BME280;7255;53.596;9.960;2023-01-05T04:08:29;100588.34;;;8.32;nan
14343;BME280;7255;53.596;9.960;2023-01-05T04:10:55;100582.13;;;8.31;nan
14343;BME280;7255;53.596;9.960;2023-01-05T04:13:21;100587.16;;;8.21;nan
14343;BME280;7255;53.596;9.960;2023-01-05T04:15:49;100585.06;;;8.23;nan
14343;BME280;7255;53.596;9.960;2023-01-05T04:18:15;100584.28;;;8.09;nan
14343;BME280;7255;53.596;9.960;2023-01-05T04:20:41;100583.50;;;8.02;nan
14343;BME280;7255;53.596;9.960;2023-01-05T04:23:09;100582.28;;;7.98;nan
14343;BME280;7255;53.596;9.960;2023-01-05T04:25:35;100593.41;;;7.95;nan
14343;BME280;7255;53.596;9.960;2023-01-05T04:28:01;100605.34;;;7.92;nan
14343;BME280;7255;53.596;9.960;2023-01-05T04:30:28;100579.44;;;7.86;nan
14343;BME280;7255;53.596;9.960;2023-01-05T04:32:54;100592.19;;;7.84;nan
14343;BME280;7255;53.596;9.960;2023-01-05T04:35:20;100607.47;;;7.77;nan
14343;BME280;7255;53.596;9.960;2023-01-05T04:37:47;100609.94;;;7.71;nan
14343;BME280;7255;53.596;9.960;2023-01-05T04:40:14;100595.09;;;7.76;nan
14343;BME280;7255;53.596;9.960;2023-01-05T04:42:41;100618.16;;;7.70;nan
14343;BME280;7255;53.596;9.960;2023-01-05T04:45:08;100627.59;;;7.72;nan
14343;BME280;7255;53.596;9.960;2023-01-05T04:47:34;100621.84;;;7.76;nan
14343;BME280;7255;53.596;9.960;2023-01-05T04:50:00;100604.13;;;7.75;nan
14343;BME280;7255;53.596;9.960;2023-01-05T04:52:27;100611.16;;;7.76;nan
14343;BME280;7255;53.596;9.960;2023-01-05T04:54:53;100621.44;;;7.79;nan
14343;BME280;7255;53.596;9.960;2023-01-05T04:57:20;100620.19;;;7.81;nan
14343;BME280;7255;53.596;9.960;2023-01-05T04:59:47;100626.75;;;7.92;nan
14343;BME280;7255;53.596;9.960;2023-01-05T05:02:13;100636.19;;;7.95;nan
14343;BME280;7255;53.596;9.960;2023-01-05T05:04:39;100646.50;;;7.91;nan
14343;BME280;7255;53.596;9.960;2023-01-05T05:07:06;100647.75;;;7.82;nan
14343;BME280;7255;53.596;9.960;2023-01-05T05:09:32;100635.41;;;7.81;nan
14343;BME280;7255;53.596;9.960;2023-01-05T05:11:59;100638.28;;;7.72;nan
14343;BME280;7255;53.596;9.960;2023-01-05T05:14:26;100630.06;;;7.74;nan
14343;BME280;7255;53.596;9.960;2023-01-05T05:16:52;100648.19;;;7.79;nan
14343;BME280;7255;53.596;9.960;2023-01-05T05:19:19;100662.97;;;7.81;nan
14343;BME280;7255;53.596;9.960;2023-01-05T05:21:45;100670.38;;;7.93;nan
14343;BME280;7255;53.596;9.960;2023-01-05T05:24:11;100658.84;;;7.92;nan
14343;BME280;7255;53.596;9.960;2023-01-05T05:26:38;100658.84;;;7.92;nan
14343;BME280;7255;53.596;9.960;2023-01-05T05:29:04;100666.69;;;7.94;nan
14343;BME280;7255;53.596;9.960;2023-01-05T05:31:31;100662.97;;;7.88;nan
14343;BME280;7255;53.596;9.960;2023-01-05T05:33:58;100675.72;;;7.93;nan
14343;BME280;7255;53.596;9.960;2023-01-05T05:36:24;100680.66;;;7.96;nan
14343;BME280;7255;53.596;9.960;2023-01-05T05:38:50;100682.69;;;8.00;nan
14343;BME280;7255;53.596;9.960;2023-01-05T05:41:17;100695.06;;;8.01;nan
14343;BME280;7255;53.596;9.960;2023-01-05T05:43:43;100658.44;;;7.95;nan
14343;BME280;7255;53.596;9.960;2023-01-05T05:46:09;100685.59;;;7.99;nan
14343;BME280;7255;53.596;9.960;2023-01-05T05:48:37;100698.75;;;8.00;nan
14343;BME280;7255;53.596;9.960;2023-01-05T05:51:04;100692.19;;;8.03;nan
14343;BME280;7255;53.596;9.960;2023-01-05T05:53:30;100671.63;;;7.90;nan
14343;BME280;7255;53.596;9.960;2023-01-05T05:55:56;100701.25;;;7.95;nan
14343;BME280;7255;53.596;9.960;2023-01-05T05:58:23;100705.75;;;7.95;nan
14343;BME280;7255;53.596;9.960;2023-01-05T06:00:49;100733.34;;;7.95;nan
14343;BME280;7255;53.596;9.960;2023-01-05T06:03:16;100709.03;;;7.97;nan
14343;BME280;7255;53.596;9.960;2023-01-05T06:05:44;100725.94;;;7.97;nan
14343;BME280;7255;53.596;9.960;2023-01-05T06:08:10;100711.53;;;7.98;nan
14343;BME280;7255;53.596;9.960;2023-01-05T06:10:37;100719.38;;;7.93;nan
14343;BME280;7255;53.596;9.960;2023-01-05T06:13:03;100715.22;;;7.90;nan
14343;BME280;7255;53.596;9.960;2023-01-05T06:15:30;100725.94;;;7.84;nan
14343;BME280;7255;53.596;9.960;2023-01-05T06:17:56;100721.41;;;7.91;nan
14343;BME280;7255;53.596;9.960;2023-01-05T06:20:22;100721.41;;;7.91;nan
14343;BME280;7255;53.596;9.960;2023-01-05T06:22:50;100729.63;;;7.96;nan
14343;BME280;7255;53.596;9.960;2023-01-05T06:25:17;100744.88;;;8.02;nan
14343;BME280;7255;53.596;9.960;2023-01-05T06:27:43;100743.62;;;7.98;nan
14343;BME280;7255;53.596;9.960;2023-01-05T06:30:10;100749.41;;;7.95;nan
14343;BME280;7255;53.596;9.960;2023-01-05T06:32:36;100744.47;;;7.92;nan
14343;BME280;7255;53.596;9.960;2023-01-05T06:35:03;100760.53;;;7.99;nan
14343;BME280;7255;53.596;9.960;2023-01-05T06:37:29;100744.06;;;7.88;nan
14343;BME280;7255;53.596;9.960;2023-01-05T06:39:57;100736.62;;;7.84;nan
14343;BME280;7255;53.596;9.960;2023-01-05T06:42:24;100760.09;;;7.88;nan
14343;BME280;7255;53.596;9.960;2023-01-05T06:44:50;100761.75;;;8.03;nan
14343;BME280;7255;53.596;9.960;2023-01-05T06:47:17;100767.53;;;7.93;nan
14343;BME280;7255;53.596;9.960;2023-01-05T06:49:43;100767.94;;;7.90;nan
14343;BME280;7255;53.596;9.960;2023-01-05T06:52:09;100770.38;;;7.98;nan
14343;BME280;7255;53.596;9.960;2023-01-05T06:54:36;100783.97;;;8.03;nan
14343;BME280;7255;53.596;9.960;2023-01-05T06:57:03;100791.78;;;7.98;nan
14343;BME280;7255;53.596;9.960;2023-01-05T06:59:30;100782.75;;;7.99;nan
14343;BME280;7255;53.596;9.960;2023-01-05T07:01:57;100794.25;;;8.00;nan
14343;BME280;7255;53.596;9.960;2023-01-05T07:04:23;100792.22;;;7.95;nan
14343;BME280;7255;53.596;9.960;2023-01-05T07:06:49;100790.16;;;7.90;nan
14343;BME280;7255;53.596;9.960;2023-01-05T07:09:16;100795.91;;;7.94;nan
14343;BME280;7255;53.596;9.960;2023-01-05T07:11:42;100802.09;;;8.01;nan
14343;BME280;7255;53.596;9.960;2023-01-05T07:14:10;100787.69;;;8.02;nan
14343;BME280;7255;53.596;9.960;2023-01-05T07:16:36;100786.88;;;7.95;nan
14343;BME280;7255;53.596;9.960;2023-01-05T07:19:03;100816.47;;;8.00;nan
14343;BME280;7255;53.596;9.960;2023-01-05T07:21:29;100801.28;;;8.01;nan
14343;BME280;7255;53.596;9.960;2023-01-05T07:23:55;100814.88;;;8.06;nan
14343;BME280;7255;53.596;9.960;2023-01-05T07:26:21;100834.63;;;8.12;nan
14343;BME280;7255;53.596;9.960;2023-01-05T07:28:48;100826.38;;;8.13;nan
14343;BME280;7255;53.596;9.960;2023-01-05T07:31:15;100840.37;;;8.08;nan
14343;BME280;7255;53.596;9.960;2023-01-05T07:33:42;100853.53;;;8.17;nan
14343;BME280;7255;53.596;9.960;2023-01-05T07:36:08;100853.97;;;8.14;nan
14343;BME280;7255;53.596;9.960;2023-01-05T07:38:34;100854.37;;;8.10;nan
14343;BME280;7255;53.596;9.960;2023-01-05T07:41:01;100857.66;;;8.13;nan
14343;BME280;7255;53.596;9.960;2023-01-05T07:43:28;100869.19;;;8.20;nan
14343;BME280;7255;53.596;9.960;2023-01-05T07:45:58;100887.72;;;8.21;nan
14343;BME280;7255;53.596;9.960;2023-01-05T07:48:25;100872.94;;;8.19;nan
14343;BME280;7255;53.596;9.960;2023-01-05T07:50:58;100872.94;;;8.19;nan
14343;BME280;7255;53.596;9.960;2023-01-05T07:53:25;100885.25;;;8.20;nan
14343;BME280;7255;53.596;9.960;2023-01-05T07:55:55;100880.31;;;8.17;nan
14343;BME280;7255;53.596;9.960;2023-01-05T07:58:22;100891.00;;;8.17;nan
14343;BME280;7255;53.596;9.960;2023-01-05T08:00:48;100905.84;;;8.13;nan
14343;BME280;7255;53.596;9.960;2023-01-05T08:03:15;100894.72;;;8.16;nan
14343;BME280;7255;53.596;9.960;2023-01-05T08:05:43;100895.97;;;8.06;nan
14343;BME280;7255;53.596;9.960;2023-01-05T08:08:10;100893.06;;;8.01;nan
14343;BME280;7255;53.596;9.960;2023-01-05T08:10:37;100916.13;;;8.02;nan
14343;BME280;7255;53.596;9.960;2023-01-05T08:13:04;100909.53;;;7.92;nan
14343;BME280;7255;53.596;9.960;2023-01-05T08:15:49;100908.28;;;8.07;nan
14343;BME280;7255;53.596;9.960;2023-01-05T08:18:16;100933.44;;;8.06;nan
14343;BME280;7255;53.596;9.960;2023-01-05T08:20:48;100943.31;;;8.06;nan
14343;BME280;7255;53.596;9.960;2023-01-05T08:23:15;100954.03;;;8.06;nan
14343;BME280;7255;53.596;9.960;2023-01-05T08:25:41;100956.88;;;8.04;nan
14343;BME280;7255;53.596;9.960;2023-01-05T08:28:07;100968.00;;;8.15;nan
14343;BME280;7255;53.596;9.960;2023-01-05T08:30:34;100963.44;;;8.02;nan
14343;BME280;7255;53.596;9.960;2023-01-05T08:33:00;100973.28;;;7.81;nan
14343;BME280;7255;53.596;9.960;2023-01-05T08:35:26;100969.09;;;7.65;nan
14343;BME280;7255;53.596;9.960;2023-01-05T08:37:54;100972.34;;;7.54;nan
14343;BME280;7255;53.596;9.960;2023-01-05T08:40:20;100994.97;;;7.58;nan
14343;BME280;7255;53.596;9.960;2023-01-05T08:42:46;101001.12;;;7.52;nan
14343;BME280;7255;53.596;9.960;2023-01-05T08:45:13;101006.72;;;7.29;nan
14343;BME280;7255;53.596;9.960;2023-01-05T08:47:40;101005.41;;;7.11;nan
14343;BME280;7255;53.596;9.960;2023-01-05T08:50:07;101026.84;;;7.18;nan
14343;BME280;7255;53.596;9.960;2023-01-05T08:52:34;101019.78;;;7.10;nan
14343;BME280;7255;53.596;9.960;2023-01-05T08:55:02;101021.81;;;7.08;nan
14343;BME280;7255;53.596;9.960;2023-01-05T08:57:29;101040.28;;;7.03;nan
14343;BME280;7255;53.596;9.960;2023-01-05T08:59:55;101036.09;;;6.94;nan
14343;BME280;7255;53.596;9.960;2023-01-05T09:02:21;101047.66;;;7.01;nan
14343;BME280;7255;53.596;9.960;2023-01-05T09:04:48;101043.47;;;6.92;nan
14343;BME280;7255;53.596;9.960;2023-01-05T09:07:14;101052.12;;;6.94;nan
14343;BME280;7255;53.596;9.960;2023-01-05T09:09:40;101047.63;;;6.94;nan
14343;BME280;7255;53.596;9.960;2023-01-05T09:12:08;101072.34;;;7.03;nan
14343;BME280;7255;53.596;9.960;2023-01-05T09:14:34;101073.56;;;7.01;nan
14343;BME280;7255;53.596;9.960;2023-01-05T09:17:01;101091.19;;;6.95;nan
14343;BME280;7255;53.596;9.960;2023-01-05T09:19:27;101092.00;;;6.96;nan
14343;BME280;7255;53.596;9.960;2023-01-05T09:21:53;101097.47;;;7.09;nan
14343;BME280;7255;53.596;9.960;2023-01-05T09:24:20;101102.38;;;7.05;nan
14343;BME280;7255;53.596;9.960;2023-01-05T09:26:46;101094.47;;;6.97;nan
14343;BME280;7255;53.596;9.960;2023-01-05T09:29:14;101103.47;;;6.89;nan
14343;BME280;7255;53.596;9.960;2023-01-05T09:31:41;101116.62;;;6.91;nan
14343;BME280;7255;53.596;9.960;2023-01-05T09:34:07;101102.19;;;6.85;nan
14343;BME280;7255;53.596;9.960;2023-01-05T09:36:33;101120.75;;;6.93;nan
14343;BME280;7255;53.596;9.960;2023-01-05T09:38:59;101122.41;;;6.94;nan
14343;BME280;7255;53.596;9.960;2023-01-05T09:41:29;101123.56;;;6.85;nan
14343;BME280;7255;53.596;9.960;2023-01-05T09:43:59;101140.84;;;6.89;nan
14343;BME280;7255;53.596;9.960;2023-01-05T09:46:31;101143.38;;;6.98;nan
14343;BME280;7255;53.596;9.960;2023-01-05T09:49:00;101142.91;;;6.87;nan
14343;BME280;7255;53.596;9.960;2023-01-05T09:51:28;101150.28;;;6.85;nan
14343;BME280;7255;53.596;9.960;2023-01-05T09:53:55;101158.53;;;6.90;nan
14343;BME280;7255;53.596;9.960;2023-01-05T09:56:26;101160.19;;;6.91;nan
14343;BME280;7255;53.596;9.960;2023-01-05T09:59:01;101165.16;;;6.94;nan
14343;BME280;7255;53.596;9.960;2023-01-05T10:01:33;101156.97;;;6.96;nan
14343;BME280;7255;53.596;9.960;2023-01-05T10:04:04;101162.31;;;6.96;nan
14343;BME280;7255;53.596;9.960;2023-01-05T10:06:33;101190.97;;;6.87;nan
14343;BME280;7255;53.596;9.960;2023-01-05T10:09:03;101176.53;;;6.82;nan
14343;BME280;7255;53.596;9.960;2023-01-05T10:11:35;101187.66;;;6.85;nan
14343;BME280;7255;53.596;9.960;2023-01-05T10:14:25;101200.59;;;7.03;nan
14343;BME280;7255;53.596;9.960;2023-01-05T10:16:56;101193.28;;;7.12;nan
14343;BME280;7255;53.596;9.960;2023-01-05T10:19:23;101188.09;;;7.25;nan
14343;BME280;7255;53.596;9.960;2023-01-05T10:21:57;101206.13;;;7.23;nan
14343;BME280;7255;53.596;9.960;2023-01-05T10:24:34;101202.44;;;7.24;nan
14343;BME280;7255;53.596;9.960;2023-01-05T10:27:07;101209.47;;;7.25;nan
14343;BME280;7255;53.596;9.960;2023-01-05T10:29:40;101208.56;;;7.18;nan
14343;BME280;7255;53.596;9.960;2023-01-05T10:32:18;101209.19;;;7.42;nan
14343;BME280;7255;53.596;9.960;2023-01-05T10:34:54;101216.19;;;7.43;nan
14343;BME280;7255;53.596;9.960;2023-01-05T10:37:32;101217.09;;;7.50;nan
14343;BME280;7255;53.596;9.960;2023-01-05T10:40:21;101214.16;;;7.45;nan
14343;BME280;7255;53.596;9.960;2023-01-05T10:43:05;101221.53;;;7.43;nan
14343;BME280;7255;53.596;9.960;2023-01-05T10:45:36;101216.19;;;7.43;nan
14343;BME280;7255;53.596;9.960;2023-01-05T10:48:10;101219.13;;;7.48;nan
14343;BME280;7255;53.596;9.960;2023-01-05T10:50:39;101224.19;;;7.64;nan
14343;BME280;7255;53.596;9.960;2023-01-05T10:53:11;101225.34;;;7.55;nan
14343;BME280;7255;53.596;9.960;2023-01-05T10:55:44;101226.19;;;7.56;nan
14343;BME280;7255;53.596;9.960;2023-01-05T10:58:21;101236.59;;;7.72;nan
14343;BME280;7255;53.596;9.960;2023-01-05T11:00:49;101238.81;;;7.90;nan
14343;BME280;7255;53.596;9.960;2023-01-05T11:03:17;101247.47;;;7.92;nan
14343;BME280;7255;53.596;9.960;2023-01-05T11:05:45;101258.38;;;8.19;nan
14343;BME280;7255;53.596;9.960;2023-01-05T11:08:14;101254.22;;;8.16;nan
14343;BME280;7255;53.596;9.960;2023-01-05T11:10:48;101260.69;;;8.00;nan
14343;BME280;7255;53.596;9.960;2023-01-05T11:13:18;101263.63;;;8.05;nan
14343;BME280;7255;53.596;9.960;2023-01-05T11:15:52;101264.03;;;8.02;nan
14343;BME280;7255;53.596;9.960;2023-01-05T11:18:26;101270.66;;;8.13;nan
14343;BME280;7255;53.596;9.960;2023-01-05T11:21:11;101272.97;;;7.88;nan
14343;BME280;7255;53.596;9.960;2023-01-05T11:23:41;101263.91;;;7.89;nan
14343;BME280;7255;53.596;9.960;2023-01-05T11:26:30;101264.94;;;7.66;nan
14343;BME280;7255;53.596;9.960;2023-01-05T11:29:02;101263.00;;;7.82;nan
14343;BME280;7255;53.596;9.960;2023-01-05T11:31:32;101275.81;;;7.86;nan
14343;BME280;7255;53.596;9.960;2023-01-05T11:34:06;101291.16;;;7.99;nan
14343;BME280;7255;53.596;9.960;2023-01-05T11:36:33;101291.25;;;8.13;nan
14343;BME280;7255;53.596;9.960;2023-01-05T11:38:59;101294.97;;;8.12;nan
14343;BME280;7255;53.596;9.960;2023-01-05T11:41:26;101292.75;;;7.94;nan
14343;BME280;7255;53.596;9.960;2023-01-05T11:43:52;101293.97;;;7.91;nan
14343;BME280;7255;53.596;9.960;2023-01-05T11:46:20;101296.44;;;7.93;nan
14343;BME280;7255;53.596;9.960;2023-01-05T11:48:51;101287.94;;;8.10;nan
14343;BME280;7255;53.596;9.960;2023-01-05T11:51:33;101284.22;;;8.05;nan
14343;BME280;7255;53.596;9.960;2023-01-05T11:54:00;101287.72;;;7.84;nan
14343;BME280;7255;53.596;9.960;2023-01-05T11:56:26;101312.06;;;7.89;nan
14343;BME280;7255;53.596;9.960;2023-01-05T11:58:53;101310.53;;;8.01;nan
14343;BME280;7255;53.596;9.960;2023-01-05T12:01:48;101309.88;;;8.21;nan
14343;BME280;7255;53.596;9.960;2023-01-05T12:04:49;101332.47;;;8.18;nan
14343;BME280;7255;53.596;9.960;2023-01-05T12:07:26;101321.16;;;7.95;nan
14343;BME280;7255;53.596;9.960;2023-01-05T12:09:58;101319.91;;;7.90;nan
14343;BME280;7255;53.596;9.960;2023-01-05T12:12:39;101329.53;;;8.13;nan
14343;BME280;7255;53.596;9.960;2023-01-05T12:15:31;101327.09;;;8.12;nan
14343;BME280;7255;53.596;9.960;2023-01-05T12:18:09;101332.81;;;8.08;nan
14343;BME280;7255;53.596;9.960;2023-01-05T12:20:51;101333.69;;;8.16;nan
14343;BME280;7255;53.596;9.960;2023-01-05T12:26:25;101333.62;;;8.09;nan
14343;BME280;7255;53.596;9.960;2023-01-05T12:29:16;101342.25;;;8.04;nan
14343;BME280;7255;53.596;9.960;2023-01-05T12:32:02;101344.16;;;7.89;nan
14343;BME280;7255;53.596;9.960;2023-01-05T12:34:45;101335.19;;;7.97;nan
14343;BME280;7255;53.596;9.960;2023-01-05T12:37:28;101340.22;;;8.06;nan
14343;BME280;7255;53.596;9.960;2023-01-05T12:40:20;101348.81;;;8.02;nan
14343;BME280;7255;53.596;9.960;2023-01-05T12:42:56;101347.47;;;7.91;nan
14343;BME280;7255;53.596;9.960;2023-01-05T12:48:18;101349.66;;;8.02;nan
14343;BME280;7255;53.596;9.960;2023-01-05T12:50:50;101353.28;;;7.95;nan
14343;BME280;7255;53.596;9.960;2023-01-05T12:53:26;101354.16;;;8.02;nan
14343;BME280;7255;53.596;9.960;2023-01-05T12:55:58;101380.22;;;8.15;nan
14343;BME280;7255;53.596;9.960;2023-01-05T12:58:29;101365.13;;;7.85;nan
14343;BME280;7255;53.596;9.960;2023-01-05T13:00:58;101392.72;;;7.86;nan
14343;BME280;7255;53.596;9.960;2023-01-05T13:03:29;101367.41;;;7.67;nan
14343;BME280;7255;53.596;9.960;2023-01-05T13:06:01;101384.44;;;7.81;nan
14343;BME280;7255;53.596;9.960;2023-01-05T13:08:36;101391.31;;;7.90;nan
14343;BME280;7255;53.596;9.960;2023-01-05T13:11:10;101398.97;;;7.93;nan
14343;BME280;7255;53.596;9.960;2023-01-05T13:13:42;101400.53;;;7.87;nan
14343;BME280;7255;53.596;9.960;2023-01-05T13:16:12;101388.53;;;7.77;nan
14343;BME280;7255;53.596;9.960;2023-01-05T13:18:41;101397.09;;;7.72;nan
14343;BME280;7255;53.596;9.960;2023-01-05T13:21:12;101408.84;;;7.93;nan
14343;BME280;7255;53.596;9.960;2023-01-05T13:23:40;101404.69;;;7.90;nan
14343;BME280;7255;53.596;9.960;2023-01-05T13:26:14;101406.78;;;7.95;nan
14343;BME280;7255;53.596;9.960;2023-01-05T13:28:41;101415.59;;;8.10;nan
14343;BME280;7255;53.596;9.960;2023-01-05T13:31:32;101422.31;;;8.21;nan
14343;BME280;7255;53.596;9.960;2023-01-05T13:40:42;101442.38;;;8.10;nan
14343;BME280;7255;53.596;9.960;2023-01-05T13:43:28;101431.72;;;8.17;nan
14343;BME280;7255;53.596;9.960;2023-01-05T13:46:23;101425.47;;;8.09;nan
14343;BME280;7255;53.596;9.960;2023-01-05T13:49:06;101427.75;;;7.91;nan
14343;BME280;7255;53.596;9.960;2023-01-05T13:51:49;101436.03;;;7.96;nan
14343;BME280;7255;53.596;9.960;2023-01-05T13:54:19;101439.34;;;7.98;nan
14343;BME280;7255;53.596;9.960;2023-01-05T13:56:48;101438.09;;;7.94;nan
14343;BME280;7255;53.596;9.960;2023-01-05T13:59:24;101446.87;;;8.09;nan
14343;BME280;7255;53.596;9.960;2023-01-05T14:01:51;101449.69;;;8.01;nan
14343;BME280;7255;53.596;9.960;2023-01-05T14:04:22;101462.12;;;8.09;nan